Jiu Hua San — 9VBK2 — position and weather

sailwx.info

Track history (hours):
 
Tides and Currents Weather Stations Pressure Air Temp Water Temp Dewpoint Dewpoint Depression Visibility Wind Speed Wind Dir Waves Ship Positions

Jiu Hua San

Last reported at 2015-Jul-30 06:31 UTC. Time now 2015-Jul-30 14:07 UTC.
Position N 01°16' E 104°10'.

Length 333 m; draft 19.8 m.

Type: Ship (hazmat cat D). MMSI: 565914000.

Date/timePositionNaut miles runAvg speedWind from/ knotsBaromVisibWave heightAir tempDewpointWater temp
2015-Jul-30 06:31N 01°16' E 104°10'15 7.9
2015-Jul-30 04:33N 01°13' E 103°55'1111.1
2015-Jul-30 03:33N 01°08' E 103°45'14012.6
2015-Jul-29 16:26N 02°12' E 101°41'16 8.6
2015-Jul-29 14:32N 02°27' E 101°34'1111.6
2015-Jul-29 13:33N 02°34' E 101°25'2713.3
2015-Jul-29 11:33N 02°46' E 101°02'1212.2
2015-Jul-29 10:33N 02°52' E 100°51'2110.5
2015-Jul-29 08:33N 03°07' E 100°36'  
Track history (hours):
 
Tides and Currents Weather Stations Pressure Air Temp Water Temp Dewpoint Dewpoint Depression Visibility Wind Speed Wind Dir Waves Ship Positions

Jiu Hua San

Last reported at 2015-Jul-30 06:31 UTC. Time now 2015-Jul-30 14:07 UTC.
Position N 01°16' E 104°10'.

Length 333 m; draft 19.8 m.

Type: Ship (hazmat cat D). MMSI: 565914000.

Date/timePositionNaut miles runAvg speedWind from/ knotsBaromVisibWave heightAir tempDewpointWater temp
2015-Jul-30 06:31N 01°16' E 104°10'15 7.9
2015-Jul-30 04:33N 01°13' E 103°55'1111.1
2015-Jul-30 03:33N 01°08' E 103°45'14012.6
2015-Jul-29 16:26N 02°12' E 101°41'16 8.6
2015-Jul-29 14:32N 02°27' E 101°34'1111.6
2015-Jul-29 13:33N 02°34' E 101°25'2713.3
2015-Jul-29 11:33N 02°46' E 101°02'1212.2
2015-Jul-29 10:33N 02°52' E 100°51'2110.5
2015-Jul-29 08:33N 03°07' E 100°36'  

Dump ship's entire track history